Time;durP1;ratioP1;P1;durP2;ratioP2;P2;SDS_P1;SDS_P2;PMS_P1;PMS_P2;Temp;Humidity;BMP_temperature;BMP_pressure;BME280_temperature;BME280_humidity;BME280_pressure;Samples;Min_cycle;Max_cycle;Signal;HPM_P1;HPM_P2
2023/03/23 00:00:45;;;;;;;6.53;5.83;;;13.80;92.60;;;;;;5074187;28;20179;-73
2023/03/23 00:03:11;;;;;;;9.70;6.80;;;13.80;93.20;;;;;;5074500;28;20252;-73
2023/03/23 00:05:40;;;;;;;8.43;6.37;;;13.80;94.30;;;;;;5074404;28;20677;-73
2023/03/23 00:08:08;;;;;;;8.80;6.30;;;13.80;92.90;;;;;;5074211;28;20169;-73
2023/03/23 00:10:35;;;;;;;7.10;5.80;;;13.80;94.10;;;;;;5074065;28;20679;-72
2023/03/23 00:13:02;;;;;;;8.33;5.30;;;13.70;95.60;;;;;;5074230;28;20195;-72
2023/03/23 00:15:32;;;;;;;6.10;5.50;;;13.70;95.80;;;;;;5074130;28;20180;-73
2023/03/23 00:18:04;;;;;;;5.80;5.17;;;13.70;95.90;;;;;;5074148;28;20253;-73
2023/03/23 00:20:39;;;;;;;5.60;5.00;;;13.70;96.00;;;;;;5074108;28;20203;-73
2023/03/23 00:23:06;;;;;;;7.77;5.43;;;13.70;95.60;;;;;;5073909;28;20646;-71
2023/03/23 00:25:32;;;;;;;5.67;5.10;;;13.70;96.60;;;;;;5074101;28;20177;-72
2023/03/23 00:27:58;;;;;;;6.23;5.07;;;13.70;97.00;;;;;;5073933;28;20552;-72
2023/03/23 00:30:23;;;;;;;5.80;4.90;;;13.70;97.10;;;;;;5073899;28;20295;-72
2023/03/23 00:32:50;;;;;;;6.30;5.07;;;13.70;96.70;;;;;;5073805;28;20286;-72
2023/03/23 00:35:17;;;;;;;5.77;5.17;;;13.60;97.90;;;;;;5074026;28;20160;-73
2023/03/23 00:37:43;;;;;;;5.10;4.70;;;13.70;98.00;;;;;;5072999;28;20175;-72
2023/03/23 00:40:10;;;;;;;6.73;4.80;;;13.70;96.70;;;;;;5073791;28;20192;-72
2023/03/23 00:42:37;;;;;;;5.67;5.07;;;13.70;97.00;;;;;;5073836;28;20176;-72
2023/03/23 00:45:10;;;;;;;5.97;5.37;;;13.70;96.80;;;;;;5073764;28;20173;-73
2023/03/23 00:47:36;;;;;;;5.50;5.00;;;13.70;96.90;;;;;;5073703;28;20260;-72
2023/03/23 00:50:03;;;;;;;5.00;4.50;;;13.70;94.90;;;;;;5073499;28;20227;-72
2023/03/23 00:52:29;;;;;;;4.80;4.40;;;13.70;95.40;;;;;;5073356;28;20203;-72
2023/03/23 00:54:55;;;;;;;6.43;4.70;;;13.70;95.30;;;;;;5073591;28;20207;-72
2023/03/23 00:57:23;;;;;;;4.73;4.33;;;13.70;97.70;;;;;;5073339;28;20181;-73
2023/03/23 00:59:50;;;;;;;5.07;4.57;;;13.70;97.80;;;;;;5073211;28;20214;-73
2023/03/23 01:02:16;;;;;;;5.23;4.50;;;13.70;96.20;;;;;;5073505;28;20176;-72
2023/03/23 01:04:44;;;;;;;5.20;4.70;;;13.70;95.50;;;;;;5073493;28;20172;-72
2023/03/23 01:07:12;;;;;;;5.27;4.73;;;13.70;97.60;;;;;;5073235;28;20180;-72
2023/03/23 01:09:44;;;;;;;5.13;4.67;;;13.70;98.10;;;;;;5055387;28;20261;-72
2023/03/23 01:12:10;;;;;;;5.83;5.23;;;13.60;99.90;;;;;;5073275;28;20628;-72
2023/03/23 01:14:36;;;;;;;5.00;4.60;;;13.60;99.20;;;;;;5073178;28;20195;-71
2023/03/23 01:17:01;;;;;;;5.93;5.00;;;13.60;99.90;;;;;;5073077;28;20688;-72
2023/03/23 01:19:27;;;;;;;4.90;4.60;;;13.60;99.90;;;;;;5073318;28;20540;-74
2023/03/23 01:21:52;;;;;;;5.10;4.60;;;13.70;99.90;;;;;;5054876;28;20658;-72
2023/03/23 01:24:18;;;;;;;7.10;5.20;;;13.60;99.90;;;;;;5073273;28;20173;-71
2023/03/23 01:26:44;;;;;;;5.43;4.87;;;13.60;99.90;;;;;;5073222;28;20569;-72
2023/03/23 01:29:09;;;;;;;5.10;4.60;;;13.60;99.90;;;;;;5073013;28;20307;-73
2023/03/23 01:31:36;;;;;;;5.87;4.90;;;13.50;99.90;;;;;;5073144;28;20168;-72
2023/03/23 01:34:03;;;;;;;5.63;5.13;;;13.60;99.90;;;;;;5073262;28;20177;-73
2023/03/23 01:36:32;;;;;;;4.70;4.33;;;13.60;99.90;;;;;;5072915;28;20180;-72
2023/03/23 01:39:00;;;;;;;4.20;3.90;;;13.60;99.90;;;;;;5072990;28;20624;-72
2023/03/23 01:41:26;;;;;;;4.77;4.47;;;13.60;99.20;;;;;;5072963;28;20169;-71
2023/03/23 01:44:03;;;;;;;5.73;4.40;;;13.60;99.50;;;;;;5072971;28;20171;-71
2023/03/23 01:46:32;;;;;;;4.50;4.10;;;13.60;97.70;;;;;;5072998;28;20225;-71
2023/03/23 01:49:12;;;;;;;5.33;4.70;;;13.60;97.90;;;;;;5075138;28;20682;-73
2023/03/23 01:51:46;;;;;;;4.80;4.40;;;13.60;99.30;;;;;;5076975;28;20231;-72
2023/03/23 01:54:19;;;;;;;5.57;5.07;;;13.60;98.10;;;;;;5077126;28;20180;-72
2023/03/23 01:57:07;;;;;;;4.77;4.37;;;13.60;97.50;;;;;;5077004;28;20241;-72
2023/03/23 01:59:34;;;;;;;5.40;4.57;;;13.60;97.20;;;;;;5076784;28;20211;-72
2023/03/23 02:02:01;;;;;;;5.73;4.67;;;13.60;96.90;;;;;;5076870;28;20176;-72
2023/03/23 02:04:28;;;;;;;4.87;4.47;;;13.70;95.60;;;;;;5076092;28;20164;-71
2023/03/23 02:06:56;;;;;;;4.80;4.27;;;13.60;95.90;;;;;;5076790;28;20655;-71
2023/03/23 02:09:22;;;;;;;7.27;4.50;;;13.60;96.00;;;;;;5076435;28;20210;-72
2023/03/23 02:11:49;;;;;;;5.97;4.73;;;13.60;96.30;;;;;;5076696;28;20251;-72
2023/03/23 02:14:16;;;;;;;5.17;3.83;;;13.60;96.40;;;;;;5058724;28;20566;-72
2023/03/23 02:16:44;;;;;;;4.00;3.70;;;13.60;94.50;;;;;;5076226;28;20718;-71
2023/03/23 02:19:32;;;;;;;5.43;3.70;;;13.60;92.60;;;;;;5058236;28;20647;-73
2023/03/23 02:22:23;;;;;;;3.40;3.00;;;13.60;91.10;;;;;;5076388;28;20196;-72
2023/03/23 02:25:00;;;;;;;3.63;3.33;;;13.50;89.80;;;;;;5058446;28;20173;-71
2023/03/23 02:28:16;;;;;;;4.10;2.90;;;13.50;90.60;;;;;;5076219;28;20231;-71
2023/03/23 02:30:50;;;;;;;3.43;2.83;;;13.50;90.00;;;;;;5035158;28;20216;-71
2023/03/23 02:33:34;;;;;;;4.23;2.40;;;13.60;87.20;;;;;;5076162;28;20656;-71
2023/03/23 02:36:10;;;;;;;4.30;2.50;;;13.60;78.50;;;;;;5076160;28;20267;-72
2023/03/23 02:38:43;;;;;;;3.43;2.00;;;13.60;81.80;;;;;;5076147;28;20262;-71
2023/03/23 02:41:11;;;;;;;2.73;2.13;;;13.50;79.90;;;;;;5076174;28;20169;-71
2023/03/23 02:43:43;;;;;;;4.00;2.10;;;13.50;80.20;;;;;;5076098;28;20229;-72
2023/03/23 02:46:10;;;;;;;3.43;2.00;;;13.60;77.20;;;;;;5075948;28;20195;-71
2023/03/23 02:48:38;;;;;;;4.13;2.33;;;13.60;74.00;;;;;;5075598;28;20172;-72
2023/03/23 02:51:04;;;;;;;3.57;1.87;;;13.50;77.30;;;;;;5076050;28;20189;-71
2023/03/23 02:53:33;;;;;;;2.33;1.73;;;13.50;75.10;;;;;;5075973;28;20176;-71
2023/03/23 02:56:02;;;;;;;2.53;2.00;;;13.50;75.90;;;;;;5075917;28;20180;-72
2023/03/23 02:58:29;;;;;;;2.50;1.67;;;13.50;80.80;;;;;;5075563;28;20690;-73
2023/03/23 03:00:56;;;;;;;3.07;1.90;;;13.50;76.30;;;;;;5075043;28;20161;-72
2023/03/23 03:03:25;;;;;;;2.77;1.80;;;13.50;75.00;;;;;;5075453;28;20157;-72
2023/03/23 03:06:21;;;;;;;4.13;1.83;;;13.60;72.50;;;;;;5075698;28;20172;-72
2023/03/23 03:08:57;;;;;;;2.07;1.63;;;13.60;68.50;;;;;;5075496;28;20212;-73
2023/03/23 03:11:25;;;;;;;3.03;1.60;;;13.60;69.60;;;;;;5075763;28;20168;-71
2023/03/23 03:14:29;;;;;;;3.97;1.80;;;13.50;72.20;;;;;;5075556;28;20203;-71
2023/03/23 03:17:07;;;;;;;2.73;1.53;;;13.50;74.70;;;;;;4993496;28;20231;-72
2023/03/23 03:19:37;;;;;;;2.33;1.40;;;13.50;68.60;;;;;;4993939;28;20253;-72
2023/03/23 03:22:04;;;;;;;1.57;1.40;;;13.50;69.30;;;;;;4994155;28;20182;-72
2023/03/23 03:24:32;;;;;;;2.40;1.53;;;13.50;68.70;;;;;;4993925;28;20195;-71
2023/03/23 03:27:00;;;;;;;1.70;1.60;;;13.50;66.50;;;;;;4993912;28;20230;-71
2023/03/23 03:29:37;;;;;;;4.20;1.50;;;13.50;67.00;;;;;;4993676;28;20579;-71
2023/03/23 03:32:06;;;;;;;2.03;1.70;;;13.50;64.40;;;;;;4977545;28;20221;-72
2023/03/23 03:34:33;;;;;;;2.67;1.50;;;13.50;61.70;;;;;;4993771;28;20377;-71
2023/03/23 03:36:59;;;;;;;2.73;1.50;;;13.50;63.40;;;;;;4993690;28;20647;-72
2023/03/23 03:39:27;;;;;;;6.17;1.67;;;13.50;60.30;;;;;;4993606;28;20169;-73
2023/03/23 03:41:53;;;;;;;2.37;1.60;;;13.50;59.30;;;;;;4993354;28;20174;-71
2023/03/23 03:44:19;;;;;;;4.20;1.90;;;13.50;60.90;;;;;;4993360;28;20670;-73
2023/03/23 03:46:45;;;;;;;3.40;1.90;;;13.50;56.70;;;;;;4993281;28;20536;-72
2023/03/23 03:49:14;;;;;;;4.13;1.80;;;13.50;56.70;;;;;;4993437;28;20307;-71
2023/03/23 03:51:41;;;;;;;3.77;1.53;;;13.50;58.60;;;;;;5044875;28;20649;-71
2023/03/23 03:54:06;;;;;;;5.87;1.73;;;13.40;56.40;;;;;;5054857;28;20170;-72
2023/03/23 03:56:35;;;;;;;3.37;1.70;;;13.50;60.00;;;;;;5054623;28;20515;-71
2023/03/23 03:59:02;;;;;;;3.67;1.83;;;13.50;57.80;;;;;;5054313;28;20235;-70
2023/03/23 04:01:28;;;;;;;6.30;1.63;;;13.50;56.90;;;;;;5054278;28;20173;-72
2023/03/23 04:03:54;;;;;;;6.40;2.07;;;13.40;56.60;;;;;;5054568;28;20718;-71
2023/03/23 04:06:21;;;;;;;5.47;1.90;;;13.40;55.10;;;;;;5054502;28;20248;-72
2023/03/23 04:08:47;;;;;;;4.57;1.90;;;13.40;53.90;;;;;;5054183;28;20179;-72
2023/03/23 04:11:13;;;;;;;5.50;2.20;;;13.50;48.40;;;;;;5053616;28;20185;-72
2023/03/23 04:13:40;;;;;;;7.13;2.30;;;13.50;49.50;;;;;;5053678;28;20640;-71
2023/03/23 04:16:07;;;;;;;6.03;2.30;;;13.40;50.20;;;;;;5058363;28;20220;-72
2023/03/23 04:18:33;;;;;;;6.73;1.70;;;13.40;49.40;;;;;;5055657;28;20172;-72
2023/03/23 04:21:00;;;;;;;8.67;2.47;;;13.40;48.50;;;;;;5073888;28;20200;-72
2023/03/23 04:23:27;;;;;;;7.23;2.43;;;13.40;50.90;;;;;;5055928;28;20183;-71
2023/03/23 04:25:56;;;;;;;6.13;2.07;;;13.40;48.40;;;;;;5073789;28;20168;-72
2023/03/23 04:28:23;;;;;;;5.47;2.00;;;13.40;52.50;;;;;;5073735;28;20177;-72
2023/03/23 04:30:52;;;;;;;7.17;2.03;;;13.40;49.90;;;;;;5073303;28;20679;-72
2023/03/23 04:33:19;;;;;;;4.70;1.97;;;13.40;51.80;;;;;;5073708;28;20179;-72
2023/03/23 04:35:47;;;;;;;5.37;1.90;;;13.40;50.40;;;;;;5073728;28;20176;-72
2023/03/23 04:38:15;;;;;;;6.70;2.20;;;13.40;51.50;;;;;;5055622;28;20527;-72
2023/03/23 04:40:42;;;;;;;3.43;2.20;;;13.40;49.70;;;;;;5073240;28;20586;-72
2023/03/23 04:43:08;;;;;;;4.80;1.70;;;13.30;50.10;;;;;;5073745;28;20176;-72
2023/03/23 04:45:37;;;;;;;3.90;1.80;;;13.30;48.10;;;;;;5073348;28;20177;-71
2023/03/23 04:48:04;;;;;;;7.27;2.00;;;13.30;48.60;;;;;;5073488;28;20257;-71
2023/03/23 04:50:32;;;;;;;3.73;1.53;;;13.30;50.60;;;;;;5072986;28;20566;-71
2023/03/23 04:53:03;;;;;;;4.47;1.57;;;13.30;53.50;;;;;;5072934;28;20306;-72
2023/03/23 04:55:30;;;;;;;5.10;1.90;;;13.20;54.30;;;;;;5072966;28;20233;-72
2023/03/23 04:58:01;;;;;;;5.27;1.70;;;13.20;56.60;;;;;;5073131;28;20195;-71
2023/03/23 05:00:27;;;;;;;2.77;1.80;;;13.20;57.60;;;;;;5073406;28;20184;-71
2023/03/23 05:02:55;;;;;;;7.23;2.07;;;13.20;56.00;;;;;;5073232;28;20628;-72
2023/03/23 05:05:21;;;;;;;5.30;1.73;;;13.10;56.80;;;;;;5073056;28;20164;-72
2023/03/23 05:07:47;;;;;;;3.00;1.50;;;13.10;62.20;;;;;;5072885;28;20172;-72
2023/03/23 05:10:13;;;;;;;2.80;1.60;;;13.10;59.10;;;;;;5072895;28;20269;-73
2023/03/23 05:12:39;;;;;;;5.17;1.70;;;13.00;60.30;;;;;;5072424;28;20176;-70
2023/03/23 05:15:06;;;;;;;4.83;1.90;;;13.00;60.30;;;;;;5072819;28;20659;-72
2023/03/23 05:17:33;;;;;;;3.60;1.73;;;13.00;64.90;;;;;;5051573;28;20236;-71
2023/03/23 05:19:59;;;;;;;4.20;1.83;;;13.00;63.50;;;;;;5052432;28;20203;-73
2023/03/23 05:22:28;;;;;;;5.60;1.90;;;13.00;60.40;;;;;;5052782;28;20185;-72
2023/03/23 05:24:53;;;;;;;3.47;1.50;;;13.10;57.50;;;;;;5052422;28;20184;-72
2023/03/23 05:27:20;;;;;;;4.53;1.50;;;13.00;58.60;;;;;;5052334;28;20173;-71
2023/03/23 05:29:48;;;;;;;5.53;2.03;;;13.00;58.60;;;;;;5052776;28;20247;-72
2023/03/23 05:32:15;;;;;;;4.63;1.90;;;13.10;60.30;;;;;;5052380;28;20170;-72
2023/03/23 05:34:42;;;;;;;3.57;2.00;;;13.20;50.90;;;;;;5052971;28;20161;-72
2023/03/23 05:37:09;;;;;;;3.27;2.10;;;13.20;51.30;;;;;;5052486;28;20177;-72
2023/03/23 05:39:35;;;;;;;7.23;2.10;;;13.20;54.20;;;;;;5052217;28;20172;-72
2023/03/23 05:42:01;;;;;;;4.17;2.07;;;13.20;51.00;;;;;;5052028;28;20180;-72
2023/03/23 05:44:27;;;;;;;6.03;2.13;;;13.10;50.80;;;;;;5052376;28;20527;-72
2023/03/23 05:46:52;;;;;;;7.10;2.73;;;13.10;54.70;;;;;;5052317;28;20505;-72
2023/03/23 05:49:18;;;;;;;5.53;2.30;;;13.10;53.20;;;;;;5051018;28;20250;-72
2023/03/23 05:51:49;;;;;;;6.57;2.23;;;13.10;53.70;;;;;;5051392;28;20177;-71
2023/03/23 05:54:16;;;;;;;6.23;2.20;;;13.20;52.70;;;;;;5051950;28;20170;-71
2023/03/23 05:56:42;;;;;;;5.63;2.47;;;13.20;49.50;;;;;;5051659;28;20170;-71
2023/03/23 05:59:10;;;;;;;7.73;2.50;;;13.20;49.50;;;;;;5050677;28;20189;-72
2023/03/23 06:01:36;;;;;;;5.73;2.20;;;13.20;44.20;;;;;;5052110;28;20216;-70
2023/03/23 06:04:03;;;;;;;6.30;2.40;;;13.30;42.00;;;;;;5052140;28;20193;-72
2023/03/23 06:06:31;;;;;;;6.97;2.50;;;13.20;40.00;;;;;;5052446;28;20180;-71
2023/03/23 06:08:57;;;;;;;7.77;2.40;;;13.30;37.20;;;;;;5051877;28;20165;-72
2023/03/23 06:11:24;;;;;;;3.93;2.30;;;13.30;37.10;;;;;;5051586;28;20577;-72
2023/03/23 06:13:50;;;;;;;5.97;2.07;;;13.20;39.50;;;;;;5050433;28;20169;-72
2023/03/23 06:16:16;;;;;;;6.13;2.20;;;13.20;41.00;;;;;;5058343;28;20263;-72
2023/03/23 06:18:42;;;;;;;6.10;2.17;;;13.30;38.50;;;;;;5071855;28;20194;-72
2023/03/23 06:21:08;;;;;;;5.97;2.03;;;13.20;40.60;;;;;;5053420;28;20585;-72
2023/03/23 06:23:34;;;;;;;4.60;2.10;;;13.20;40.60;;;;;;5071754;28;20172;-72
2023/03/23 06:26:03;;;;;;;6.57;2.57;;;13.20;41.70;;;;;;5071000;28;20258;-72
2023/03/23 06:28:29;;;;;;;4.70;2.30;;;13.20;43.20;;;;;;5071255;28;20180;-72
2023/03/23 06:30:55;;;;;;;5.90;2.43;;;13.30;35.40;;;;;;5071237;28;20204;-72
2023/03/23 06:33:21;;;;;;;9.93;2.40;;;13.30;33.60;;;;;;5072058;28;20587;-72
2023/03/23 06:35:48;;;;;;;7.50;2.33;;;13.40;32.70;;;;;;5073209;28;20286;-71
2023/03/23 06:38:13;;;;;;;6.13;2.20;;;13.40;32.10;;;;;;5075632;28;20179;-73
2023/03/23 06:40:39;;;;;;;4.83;2.33;;;13.30;33.00;;;;;;5074806;28;20164;-71
2023/03/23 06:43:05;;;;;;;4.90;2.57;;;13.30;32.20;;;;;;5075082;28;20612;-72
2023/03/23 06:45:33;;;;;;;9.80;2.53;;;13.30;31.80;;;;;;5074803;28;20321;-72
2023/03/23 06:47:58;;;;;;;7.80;2.57;;;13.40;34.10;;;;;;5056627;28;20184;-72
2023/03/23 06:50:24;;;;;;;11.40;2.40;;;13.40;38.30;;;;;;5074539;28;20220;-71
2023/03/23 06:52:51;;;;;;;5.60;2.50;;;13.40;49.10;;;;;;5074511;28;20183;-73
2023/03/23 06:55:17;;;;;;;7.27;2.57;;;13.30;55.40;;;;;;5074034;28;20180;-71
2023/03/23 06:57:44;;;;;;;8.30;2.53;;;13.20;64.10;;;;;;5074185;28;20192;-71
2023/03/23 07:00:13;;;;;;;4.17;2.27;;;13.20;77.40;;;;;;5074218;28;20204;-72
2023/03/23 07:02:39;;;;;;;6.83;2.13;;;13.00;96.60;;;;;;5074612;28;20187;-71
2023/03/23 07:05:05;;;;;;;4.40;1.53;;;12.70;99.90;;;;;;5074147;28;20322;-72
2023/03/23 07:07:31;;;;;;;3.63;0.90;;;12.10;99.90;;;;;;5074298;28;20204;-71
2023/03/23 07:09:57;;;;;;;1.17;1.07;;;11.80;99.90;;;;;;5073790;28;20241;-71
2023/03/23 07:12:23;;;;;;;2.40;1.33;;;11.40;99.90;;;;;;5074339;28;20180;-72
2023/03/23 07:14:49;;;;;;;3.03;1.50;;;11.30;99.90;;;;;;5074010;28;20562;-70
2023/03/23 07:17:15;;;;;;;5.33;1.03;;;11.20;99.90;;;;;;5073985;28;20243;-71
2023/03/23 07:19:40;;;;;;;2.47;1.40;;;11.10;99.90;;;;;;5056433;28;20614;-71
2023/03/23 07:22:07;;;;;;;2.37;1.00;;;11.00;99.90;;;;;;5073874;28;20195;-72
2023/03/23 07:24:34;;;;;;;2.57;1.30;;;10.80;99.90;;;;;;5073691;28;20184;-70
2023/03/23 07:27:00;;;;;;;2.50;1.40;;;10.60;99.90;;;;;;5074649;28;20204;-70
2023/03/23 07:29:26;;;;;;;3.13;1.00;;;10.50;99.90;;;;;;5073237;28;20213;-72
2023/03/23 07:31:52;;;;;;;3.07;0.97;;;10.50;99.90;;;;;;5073709;28;20207;-69
2023/03/23 07:34:19;;;;;;;4.37;1.60;;;10.40;99.90;;;;;;5074109;28;20180;-72
2023/03/23 07:36:45;;;;;;;2.97;1.50;;;10.50;99.90;;;;;;5056629;28;20676;-70
2023/03/23 07:39:11;;;;;;;6.37;1.83;;;10.60;99.90;;;;;;5054970;28;20545;-71
2023/03/23 07:41:38;;;;;;;4.83;2.03;;;10.70;99.90;;;;;;5073645;28;20187;-70
2023/03/23 07:44:05;;;;;;;7.73;2.37;;;10.70;99.90;;;;;;5072696;28;20234;-71
2023/03/23 07:46:31;;;;;;;5.47;2.33;;;10.80;99.90;;;;;;5072892;28;20568;-70
2023/03/23 07:48:58;;;;;;;7.47;2.17;;;10.90;99.90;;;;;;5073588;28;20199;-71
2023/03/23 07:51:24;;;;;;;4.17;2.33;;;11.00;99.90;;;;;;5072851;28;20230;-71
2023/03/23 07:53:51;;;;;;;7.47;2.37;;;11.10;99.90;;;;;;5054991;28;20627;-70
2023/03/23 07:56:19;;;;;;;4.90;2.00;;;11.20;99.90;;;;;;5072489;28;20254;-72
2023/03/23 07:58:48;;;;;;;5.27;2.40;;;11.40;99.90;;;;;;5073170;28;20204;-72
2023/03/23 08:01:14;;;;;;;3.30;2.30;;;11.40;99.90;;;;;;5073226;28;20184;-71
2023/03/23 08:03:42;;;;;;;6.53;2.10;;;11.30;99.90;;;;;;5073591;28;20180;-71
2023/03/23 08:06:09;;;;;;;5.57;2.00;;;11.40;99.90;;;;;;5072842;28;20181;-71
2023/03/23 08:08:36;;;;;;;2.37;1.87;;;11.50;99.90;;;;;;5055178;28;20173;-72
2023/03/23 08:11:02;;;;;;;4.93;2.00;;;11.60;99.90;;;;;;5072267;28;20244;-72
2023/03/23 08:13:29;;;;;;;4.23;1.80;;;11.60;99.90;;;;;;5073344;28;20207;-71
2023/03/23 08:15:55;;;;;;;4.93;1.50;;;11.60;99.90;;;;;;5072370;28;20231;-72
2023/03/23 08:18:20;;;;;;;5.57;2.07;;;11.70;99.90;;;;;;5073152;28;20176;-70
2023/03/23 08:20:49;;;;;;;6.03;1.83;;;11.70;99.90;;;;;;5071699;28;20242;-70
2023/03/23 08:23:17;;;;;;;2.07;1.53;;;11.70;99.90;;;;;;5070867;28;20181;-71
2023/03/23 08:25:43;;;;;;;3.10;1.80;;;11.70;99.90;;;;;;5072200;28;20188;-71
2023/03/23 08:28:09;;;;;;;4.03;1.70;;;11.60;99.90;;;;;;5070097;28;20180;-71
2023/03/23 08:30:36;;;;;;;3.47;1.53;;;11.60;99.90;;;;;;5070883;28;20211;-71
2023/03/23 08:33:05;;;;;;;3.87;1.50;;;11.50;99.90;;;;;;5068386;28;20337;-70
2023/03/23 08:35:34;;;;;;;2.93;1.60;;;11.40;99.90;;;;;;5078003;28;20179;-70
2023/03/23 08:37:59;;;;;;;5.47;1.70;;;11.40;99.90;;;;;;5074496;28;20271;-70
2023/03/23 08:40:27;;;;;;;6.73;2.00;;;11.40;99.90;;;;;;5076096;28;20735;-70
2023/03/23 08:42:53;;;;;;;6.33;1.90;;;11.60;99.90;;;;;;5078895;28;20343;-72
2023/03/23 08:45:24;;;;;;;4.20;1.70;;;11.50;99.90;;;;;;5068035;28;20227;-70
2023/03/23 08:47:53;;;;;;;3.73;1.90;;;11.40;99.90;;;;;;5072128;28;20639;-71
2023/03/23 08:50:24;;;;;;;3.30;1.70;;;11.40;99.90;;;;;;5070356;28;20214;-70
2023/03/23 08:52:50;;;;;;;6.53;1.90;;;11.30;99.90;;;;;;5068258;28;20196;-72
2023/03/23 08:55:17;;;;;;;3.90;1.93;;;11.30;99.90;;;;;;5071719;28;20183;-71
2023/03/23 08:57:44;;;;;;;6.53;1.97;;;11.50;99.90;;;;;;5075187;28;20686;-71
2023/03/23 09:00:17;;;;;;;6.63;1.83;;;11.70;99.90;;;;;;5089072;28;20184;-71
2023/03/23 09:02:45;;;;;;;6.53;1.70;;;11.90;99.90;;;;;;5059082;28;20647;-73
2023/03/23 09:05:11;;;;;;;4.90;1.30;;;11.90;99.90;;;;;;5052161;28;20319;-73
2023/03/23 09:07:44;;;;;;;3.63;2.00;;;12.00;99.90;;;;;;5070300;28;20192;-73
2023/03/23 09:10:09;;;;;;;4.10;1.63;;;12.00;99.90;;;;;;5065018;28;20300;-72
2023/03/23 09:12:36;;;;;;;5.47;2.10;;;12.00;99.90;;;;;;5068619;28;20199;-73
2023/03/23 09:15:08;;;;;;;3.03;1.67;;;11.90;99.90;;;;;;5039023;28;20632;-72
2023/03/23 09:17:46;;;;;;;3.60;1.63;;;12.10;99.90;;;;;;5071424;28;20247;-73
2023/03/23 09:20:13;;;;;;;3.77;1.93;;;12.10;99.90;;;;;;5071397;28;20178;-73
2023/03/23 09:22:41;;;;;;;5.63;2.13;;;12.10;99.90;;;;;;5069631;28;20184;-73
2023/03/23 09:25:09;;;;;;;5.13;2.13;;;12.30;99.90;;;;;;5071942;28;20624;-72
2023/03/23 09:27:36;;;;;;;8.13;2.13;;;12.60;99.90;;;;;;5070511;28;20376;-72
2023/03/23 09:30:07;;;;;;;6.80;2.03;;;12.70;99.90;;;;;;5070892;28;20524;-73
2023/03/23 09:32:34;;;;;;;10.37;2.17;;;12.70;99.90;;;;;;5062751;28;20181;-72
2023/03/23 09:35:08;;;;;;;6.50;2.00;;;12.60;99.90;;;;;;5070180;28;20249;-74
2023/03/23 09:37:35;;;;;;;6.83;2.23;;;12.70;99.90;;;;;;5069973;28;20175;-71
2023/03/23 09:40:03;;;;;;;5.13;2.10;;;12.80;99.90;;;;;;5072017;28;20222;-72
2023/03/23 09:43:06;;;;;;;4.77;1.87;;;13.00;99.90;;;;;;5069207;28;20208;-72
2023/03/23 09:46:00;;;;;;;2.93;1.90;;;13.50;99.90;;;;;;5053276;28;20194;-72
2023/03/23 09:48:29;;;;;;;5.20;1.67;;;14.50;98.80;;;;;;5064867;28;20164;-74
2023/03/23 09:51:19;;;;;;;5.07;1.93;;;15.00;72.90;;;;;;5071240;28;20222;-73
2023/03/23 09:53:51;;;;;;;4.17;2.20;;;15.70;36.50;;;;;;5071113;28;20517;-73
2023/03/23 09:56:17;;;;;;;3.40;1.90;;;16.00;5.30;;;;;;5075779;28;20643;-72
2023/03/23 09:58:55;;;;;;;5.13;1.70;;;15.80;19.80;;;;;;5070849;28;20254;-74
2023/03/23 10:01:32;;;;;;;3.63;1.80;;;15.80;18.10;;;;;;5075118;28;20171;-71
2023/03/23 10:04:26;;;;;;;5.00;2.03;;;15.40;33.00;;;;;;5080763;28;20196;-72
2023/03/23 10:06:56;;;;;;;3.70;1.90;;;15.40;41.10;;;;;;5063944;28;20588;-72
2023/03/23 10:09:23;;;;;;;3.93;1.80;;;15.70;26.90;;;;;;5057446;28;20227;-73
2023/03/23 10:12:09;;;;;;;2.10;1.93;;;15.60;34.40;;;;;;5073359;28;20534;-74
2023/03/23 10:14:41;;;;;;;5.73;1.90;;;15.30;42.50;;;;;;5066647;28;20176;-72
2023/03/23 10:17:12;;;;;;;2.10;1.90;;;15.30;50.90;;;;;;5073683;28;20285;-72
2023/03/23 10:19:47;;;;;;;6.13;2.10;;;15.30;49.10;;;;;;5083199;28;20237;-72
2023/03/23 10:22:17;;;;;;;4.80;1.97;;;15.10;42.80;;;;;;5074157;28;20176;-74
2023/03/23 10:25:05;;;;;;;4.53;2.40;;;15.10;59.30;;;;;;5075019;28;20247;-74
2023/03/23 10:27:42;;;;;;;3.93;2.00;;;15.50;56.40;;;;;;5073026;28;20207;-74
2023/03/23 10:30:11;;;;;;;5.10;2.50;;;15.30;32.60;;;;;;5069485;28;20682;-73
2023/03/23 10:33:01;;;;;;;3.93;2.07;;;15.20;46.30;;;;;;5083712;28;20320;-74
2023/03/23 10:35:43;;;;;;;6.03;2.17;;;15.10;44.40;;;;;;5072546;28;20180;-73
2023/03/23 10:38:17;;;;;;;5.47;2.37;;;15.10;55.30;;;;;;5071806;28;20199;-73
2023/03/23 10:40:55;;;;;;;5.50;2.43;;;15.30;58.50;;;;;;5072563;28;20174;-73
2023/03/23 10:43:21;;;;;;;5.27;2.40;;;15.30;49.90;;;;;;5078865;28;20176;-72
2023/03/23 10:45:56;;;;;;;3.83;2.60;;;15.40;47.40;;;;;;5068293;28;20185;-73
2023/03/23 10:48:33;;;;;;;5.60;2.30;;;15.30;61.40;;;;;;5067823;28;20172;-72
2023/03/23 10:51:02;;;;;;;6.53;2.30;;;15.50;66.40;;;;;;5073638;28;20305;-72
2023/03/23 10:53:37;;;;;;;3.53;2.35;;;16.00;46.70;;;;;;5069337;28;20179;-73
2023/03/23 10:56:03;;;;;;;5.57;2.42;;;16.70;34.30;;;;;;5066125;28;20251;-72
2023/03/23 10:58:35;;;;;;;5.97;2.50;;;16.80;6.50;;;;;;5072511;28;20265;-72
2023/03/23 11:01:04;;;;;;;3.70;2.47;;;16.70;1.00;;;;;;5072975;28;20655;-72
2023/03/23 11:03:32;;;;;;;6.50;2.47;;;16.60;9.30;;;;;;5073902;28;20176;-73
2023/03/23 11:06:04;;;;;;;3.80;2.50;;;16.20;15.90;;;;;;5072197;28;20550;-73
2023/03/23 11:08:34;;;;;;;5.03;2.40;;;16.10;20.30;;;;;;5072780;28;20235;-74
2023/03/23 11:11:18;;;;;;;3.85;2.42;;;16.20;21.90;;;;;;5073229;28;20679;-73
2023/03/23 11:13:46;;;;;;;5.05;2.20;;;16.90;8.30;;;;;;5072187;28;20267;-72
2023/03/23 11:17:06;;;;;;;9.35;3.88;;;17.30;1.00;;;;;;5076873;28;20361;-73
2023/03/23 11:19:37;;;;;;;5.68;4.47;;;17.30;1.00;;;;;;5034896;28;20211;-72
2023/03/23 11:22:05;;;;;;;6.30;4.53;;;17.20;1.00;;;;;;5073011;28;20320;-71
2023/03/23 11:24:40;;;;;;;7.38;3.17;;;17.10;1.00;;;;;;5073653;28;20225;-75
2023/03/23 11:27:11;;;;;;;7.97;4.88;;;16.90;1.00;;;;;;5073756;28;20168;-74
2023/03/23 11:29:55;;;;;;;4.95;2.45;;;16.90;1.00;;;;;;5072790;28;20220;-73
2023/03/23 11:32:27;;;;;;;5.15;3.30;;;16.70;1.00;;;;;;5069789;28;20248;-74
2023/03/23 11:35:07;;;;;;;8.32;3.38;;;16.60;12.40;;;;;;5073399;28;20180;-74
2023/03/23 11:37:43;;;;;;;4.90;2.40;;;16.80;14.70;;;;;;5073810;28;20176;-74
2023/03/23 11:40:12;;;;;;;7.10;2.85;;;16.80;1.50;;;;;;5073740;28;20168;-75
2023/03/23 11:42:44;;;;;;;5.65;3.58;;;16.90;1.00;;;;;;5089876;28;20552;-73
2023/03/23 11:45:59;;;;;;;6.17;2.30;;;16.80;1.00;;;;;;5073867;28;20165;-76
2023/03/23 11:48:45;;;;;;;9.23;2.30;;;16.70;1.00;;;;;;5069387;28;20185;-70
2023/03/23 11:51:26;;;;;;;7.38;2.60;;;16.90;1.00;;;;;;5069423;28;20208;-72
2023/03/23 11:54:26;;;;;;;7.88;2.33;;;17.20;1.00;;;;;;5073802;28;20180;-74
2023/03/23 11:56:52;;;;;;;7.32;2.05;;;17.10;1.00;;;;;;5072272;28;20184;-73
2023/03/23 11:59:27;;;;;;;4.00;2.22;;;17.30;1.00;;;;;;5073998;28;20176;-73
2023/03/23 12:02:06;;;;;;;6.50;2.50;;;17.50;1.00;;;;;;5078208;28;20207;-74
2023/03/23 12:04:56;;;;;;;4.63;2.20;;;17.80;1.00;;;;;;5067677;28;20173;-74
2023/03/23 12:07:52;;;;;;;5.15;2.33;;;17.50;1.00;;;;;;5053475;28;20197;-74
2023/03/23 12:10:25;;;;;;;5.25;2.03;;;17.00;1.00;;;;;;5036064;28;20270;-73
2023/03/23 12:13:13;;;;;;;6.27;2.43;;;17.10;1.00;;;;;;5067924;28;20169;-73
2023/03/23 12:15:47;;;;;;;6.88;2.33;;;17.30;1.00;;;;;;5053552;28;20184;-73
2023/03/23 12:18:22;;;;;;;23.58;16.88;;;17.70;1.00;;;;;;5068499;28;20172;-73
2023/03/23 12:21:03;;;;;;;3.20;2.25;;;17.80;1.00;;;;;;5066792;28;20176;-72
2023/03/23 12:24:05;;;;;;;8.85;4.03;;;17.80;1.00;;;;;;5051813;28;20173;-74
2023/03/23 12:26:37;;;;;;;7.28;3.88;;;18.00;1.00;;;;;;5072227;28;20541;-73
2023/03/23 12:29:42;;;;;;;7.85;2.30;;;18.10;1.00;;;;;;5070025;28;20204;-73
2023/03/23 12:32:24;;;;;;;9.70;4.20;;;17.80;1.00;;;;;;5070319;28;20204;-74
2023/03/23 12:35:21;;;;;;;9.75;2.30;;;17.60;1.00;;;;;;5072537;28;20164;-73
2023/03/23 12:37:58;;;;;;;7.60;2.63;;;17.60;1.00;;;;;;5057347;28;20187;-72
2023/03/23 12:41:12;;;;;;;8.00;3.00;;;17.60;1.00;;;;;;5066610;28;20173;-72
2023/03/23 12:44:13;;;;;;;5.75;2.92;;;17.80;1.00;;;;;;5029712;28;20241;-71
2023/03/23 12:46:51;;;;;;;7.40;2.53;;;18.00;1.00;;;;;;5029440;28;20172;-73
2023/03/23 12:49:27;;;;;;;9.02;2.95;;;18.10;1.00;;;;;;5025451;28;20221;-74
2023/03/23 12:52:02;;;;;;;8.50;2.83;;;18.20;1.00;;;;;;5027935;28;20213;-71
2023/03/23 12:54:51;;;;;;;9.73;3.00;;;18.20;1.00;;;;;;5022370;28;20177;-72
2023/03/23 12:57:30;;;;;;;149.93;113.40;;;18.10;1.00;;;;;;5028958;28;20231;-73
2023/03/23 13:00:30;;;;;;;10.23;5.75;;;17.80;1.00;;;;;;5027985;28;20217;-74
2023/03/23 13:03:21;;;;;;;18.35;9.48;;;17.80;1.00;;;;;;5029062;28;20715;-72
2023/03/23 13:05:54;;;;;;;9.15;4.30;;;17.80;1.00;;;;;;5026892;28;20170;-72
2023/03/23 13:08:44;;;;;;;11.32;3.22;;;17.40;1.00;;;;;;5026682;28;20645;-73